Time;durP1;ratioP1;P1;durP2;ratioP2;P2;SDS_P1;SDS_P2;PMS_P1;PMS_P2;Temp;Humidity;BMP_temperature;BMP_pressure;BME280_temperature;BME280_humidity;BME280_pressure;Samples;Min_cycle;Max_cycle;Signal;HPM_P1;HPM_P2
2023/06/08 00:02:05;;;;;;;22.70;10.90;;;;;;;;;;6114442;23;20022;-65
2023/06/08 00:04:33;;;;;;;19.13;10.40;;;;;;;;;;6116067;23;20046;-47
2023/06/08 00:07:03;;;;;;;22.77;10.07;;;;;;;;;;6115400;23;20547;-49
2023/06/08 00:09:37;;;;;;;25.27;10.65;;;;;;;;;;6115949;23;20021;-50
2023/06/08 00:14:40;;;;;;;25.45;10.68;;;;;;;;;;6137132;23;20048;-45
2023/06/08 00:17:14;;;;;;;22.90;10.68;;;;;;;;;;6145384;23;20088;-47
2023/06/08 00:19:43;;;;;;;24.85;10.50;;;;;;;;;;6146429;23;20021;-45
2023/06/08 00:22:17;;;;;;;25.70;9.98;;;;;;;;;;6145474;23;20429;-45
2023/06/08 00:24:44;;;;;;;22.02;10.73;;;;;;;;;;6143950;23;20024;-50
2023/06/08 00:27:18;;;;;;;26.70;10.43;;;;;;;;;;6145056;23;20033;-52
2023/06/08 00:29:45;;;;;;;27.38;11.52;;;;;;;;;;6144029;23;20474;-61
2023/06/08 00:32:12;;;;;;;26.67;11.43;;;;;;;;;;6145022;23;20025;-48
2023/06/08 00:34:46;;;;;;;23.70;10.15;;;;;;;;;;6145149;23;20080;-49
2023/06/08 00:37:13;;;;;;;20.13;11.52;;;;;;;;;;6144656;23;20027;-48
2023/06/08 00:39:47;;;;;;;23.25;10.45;;;;;;;;;;6145046;23;20511;-51
2023/06/08 00:42:14;;;;;;;35.97;11.80;;;;;;;;;;6143487;23;20388;-47
2023/06/08 00:44:47;;;;;;;23.27;10.55;;;;;;;;;;6139575;22;20029;-48
2023/06/08 00:47:21;;;;;;;26.05;11.48;;;;;;;;;;6140809;23;20025;-47
2023/06/08 00:49:49;;;;;;;22.73;10.35;;;;;;;;;;6143810;23;20025;-52
2023/06/08 00:52:18;;;;;;;23.95;10.98;;;;;;;;;;6146197;23;20080;-51
2023/06/08 00:54:52;;;;;;;21.13;10.55;;;;;;;;;;6146852;23;20083;-52
2023/06/08 00:57:20;;;;;;;26.17;10.18;;;;;;;;;;6145774;23;20060;-48
2023/06/08 00:59:55;;;;;;;18.65;10.45;;;;;;;;;;6145818;23;20021;-48
2023/06/08 01:02:23;;;;;;;21.25;10.25;;;;;;;;;;6144777;23;20032;-58
2023/06/08 01:05:01;;;;;;;25.95;11.52;;;;;;;;;;6148807;23;20108;-58
2023/06/08 01:07:44;;;;;;;24.35;10.38;;;;;;;;;;6145704;23;20032;-58
2023/06/08 01:10:20;;;;;;;22.10;10.50;;;;;;;;;;6146014;23;20022;-59
2023/06/08 01:13:00;;;;;;;23.63;9.65;;;;;;;;;;6146430;23;20520;-59
2023/06/08 01:15:38;;;;;;;19.13;9.57;;;;;;;;;;6141674;23;20824;-58
2023/06/08 01:18:07;;;;;;;21.52;10.32;;;;;;;;;;6144312;23;20592;-59
2023/06/08 01:23:44;;;;;;;26.77;11.73;;;;;;;;;;6113831;23;20593;-60
2023/06/08 01:26:20;;;;;;;30.55;11.27;;;;;;;;;;6146882;23;20113;-58
2023/06/08 01:28:48;;;;;;;26.23;11.27;;;;;;;;;;6146017;23;20421;-61
2023/06/08 01:31:15;;;;;;;;;;;;;;;;;;6146948;23;20026;-61
2023/06/08 01:33:50;;;;;;;29.02;12.23;;;;;;;;;;6146285;23;19979;-61
2023/06/08 01:36:20;;;;;;;24.58;12.13;;;;;;;;;;6144879;23;20084;-45
2023/06/08 01:39:02;;;;;;;21.50;10.75;;;;;;;;;;6144537;23;20385;-45
2023/06/08 01:41:38;;;;;;;21.02;10.63;;;;;;;;;;6145557;23;20029;-50
2023/06/08 01:44:07;;;;;;;21.25;10.35;;;;;;;;;;6147515;23;20085;-54
2023/06/08 01:46:34;;;;;;;21.05;10.55;;;;;;;;;;6146528;23;20021;-48
2023/06/08 01:49:08;;;;;;;23.88;12.13;;;;;;;;;;6141650;23;20063;-55
2023/06/08 01:51:37;;;;;;;28.15;10.93;;;;;;;;;;6147063;23;20026;-50
2023/06/08 01:54:17;;;;;;;24.80;10.68;;;;;;;;;;6165755;23;20025;-48
2023/06/08 01:56:52;;;;;;;14.73;8.88;;;;;;;;;;6176783;23;20083;-48
2023/06/08 01:59:19;;;;;;;13.13;8.30;;;;;;;;;;6170974;23;20436;-47
2023/06/08 02:01:46;;;;;;;19.42;9.15;;;;;;;;;;6162618;23;20036;-41
2023/06/08 02:04:26;;;;;;;23.13;10.25;;;;;;;;;;6171691;23;20024;-43
2023/06/08 02:06:55;;;;;;;19.05;9.88;;;;;;;;;;6174674;23;20096;-43
2023/06/08 02:09:29;;;;;;;20.98;10.20;;;;;;;;;;6176416;23;20032;-42
2023/06/08 02:12:06;;;;;;;24.13;9.93;;;;;;;;;;6175347;23;20875;-43
2023/06/08 02:14:40;;;;;;;25.10;10.57;;;;;;;;;;6159425;23;20083;-42
2023/06/08 02:17:07;;;;;;;;;;;;;;;;;;6176299;23;20017;-45
2023/06/08 02:19:34;;;;;;;47.45;14.05;;;;;;;;;;6175121;23;19994;-44
2023/06/08 02:22:09;;;;;;;48.53;13.75;;;;;;;;;;6173458;23;20049;-43
2023/06/08 02:24:36;;;;;;;141.60;18.67;;;;;;;;;;6176859;23;20036;-46
2023/06/08 02:27:03;;;;;;;270.40;23.33;;;;;;;;;;6173289;23;20021;-46
2023/06/08 02:29:37;;;;;;;106.25;18.95;;;;;;;;;;6175600;23;20028;-44
2023/06/08 02:32:04;;;;;;;114.72;17.90;;;;;;;;;;6173392;23;20029;-46
2023/06/08 02:34:38;;;;;;;94.95;18.75;;;;;;;;;;6171465;23;20483;-49
2023/06/08 02:37:05;;;;;;;74.43;16.60;;;;;;;;;;6175840;23;20485;-47
2023/06/08 02:39:40;;;;;;;258.63;26.40;;;;;;;;;;6172028;23;20024;-52
2023/06/08 02:42:07;;;;;;;162.25;22.25;;;;;;;;;;6175816;23;20021;-51
2023/06/08 02:44:34;;;;;;;229.02;23.50;;;;;;;;;;6175614;23;20033;-50
2023/06/08 02:47:09;;;;;;;44.05;12.95;;;;;;;;;;6175940;23;20025;-52
2023/06/08 02:49:36;;;;;;;96.63;13.95;;;;;;;;;;6175903;23;20027;-56
2023/06/08 02:52:03;;;;;;;173.77;18.48;;;;;;;;;;6174409;23;20830;-57
2023/06/08 02:54:38;;;;;;;136.00;16.80;;;;;;;;;;6175190;23;20608;-58
2023/06/08 02:57:05;;;;;;;133.52;16.38;;;;;;;;;;6174918;23;20500;-58
2023/06/08 02:59:40;;;;;;;143.32;18.27;;;;;;;;;;6174513;23;20567;-58
2023/06/08 03:02:14;;;;;;;110.10;15.27;;;;;;;;;;6174313;23;20018;-58
2023/06/08 03:04:52;;;;;;;112.15;16.85;;;;;;;;;;6171688;23;20106;-58
2023/06/08 03:07:19;;;;;;;118.00;19.33;;;;;;;;;;6175073;23;20084;-57
2023/06/08 03:09:47;;;;;;;128.85;20.75;;;;;;;;;;6174446;23;20025;-58
2023/06/08 03:12:21;;;;;;;69.22;16.52;;;;;;;;;;6176136;23;20388;-57
2023/06/08 03:14:51;;;;;;;69.32;17.30;;;;;;;;;;6172321;23;20076;-54
2023/06/08 03:17:25;;;;;;;169.68;22.02;;;;;;;;;;6173370;23;20087;-57
2023/06/08 03:19:52;;;;;;;192.32;24.35;;;;;;;;;;6167952;23;20036;-58
2023/06/08 03:22:26;;;;;;;213.20;18.73;;;;;;;;;;6172528;23;20056;-55
2023/06/08 03:24:54;;;;;;;86.50;19.75;;;;;;;;;;6175203;23;20028;-58
2023/06/08 03:27:28;;;;;;;102.50;21.27;;;;;;;;;;6176114;23;20087;-42
2023/06/08 03:29:55;;;;;;;50.35;17.65;;;;;;;;;;6174992;23;20025;-43
2023/06/08 03:32:29;;;;;;;174.43;24.17;;;;;;;;;;6174850;23;20033;-44
2023/06/08 03:35:03;;;;;;;172.10;24.45;;;;;;;;;;6175119;23;20029;-43
2023/06/08 03:37:31;;;;;;;168.80;24.05;;;;;;;;;;6175164;23;20100;-45
2023/06/08 03:39:58;;;;;;;60.60;19.48;;;;;;;;;;6175689;23;20103;-44
2023/06/08 03:42:33;;;;;;;82.75;21.85;;;;;;;;;;6176137;23;20028;-58
2023/06/08 03:45:07;;;;;;;101.90;22.83;;;;;;;;;;6175212;23;20021;-43
2023/06/08 03:47:35;;;;;;;77.13;20.73;;;;;;;;;;6175288;23;20044;-46
2023/06/08 03:50:16;;;;;;;101.07;22.60;;;;;;;;;;6175402;23;20104;-47
2023/06/08 03:52:57;;;;;;;136.32;24.38;;;;;;;;;;6173844;23;20353;-52
2023/06/08 03:55:26;;;;;;;80.07;21.75;;;;;;;;;;6175679;23;20032;-50
2023/06/08 03:58:00;;;;;;;65.30;19.90;;;;;;;;;;6175531;23;20021;-50
2023/06/08 04:00:29;;;;;;;;;;;;;;;;;;6173706;23;20358;-58
2023/06/08 04:02:58;;;;;;;102.60;18.52;;;;;;;;;;6170325;23;19920;-58
2023/06/08 04:05:39;;;;;;;256.02;30.33;;;;;;;;;;6173896;23;20032;-50
2023/06/08 04:08:06;;;;;;;77.10;20.85;;;;;;;;;;6175431;23;20542;-46
2023/06/08 04:10:40;;;;;;;89.63;22.55;;;;;;;;;;6176594;23;20083;-51
2023/06/08 04:13:07;;;;;;;231.32;27.75;;;;;;;;;;6172830;23;20087;-52
2023/06/08 04:15:35;;;;;;;94.90;23.20;;;;;;;;;;6174457;23;20504;-48
2023/06/08 04:18:11;;;;;;;55.75;19.83;;;;;;;;;;6175252;23;20021;-52
2023/06/08 04:20:40;;;;;;;66.85;19.90;;;;;;;;;;6175892;23;20025;-51
2023/06/08 04:23:15;;;;;;;158.63;24.45;;;;;;;;;;6175104;23;20098;-53
2023/06/08 04:25:42;;;;;;;61.65;21.08;;;;;;;;;;6176985;23;20029;-45
2023/06/08 04:28:09;;;;;;;129.98;23.45;;;;;;;;;;6173940;23;20028;-47
2023/06/08 04:30:44;;;;;;;63.58;21.17;;;;;;;;;;6176162;23;20021;-46
2023/06/08 04:33:11;;;;;;;70.45;22.13;;;;;;;;;;6176079;23;20025;-45
2023/06/08 04:35:45;;;;;;;79.10;22.67;;;;;;;;;;6177525;23;20072;-45
2023/06/08 04:38:14;;;;;;;138.07;26.08;;;;;;;;;;6176123;23;20041;-47
2023/06/08 04:40:53;;;;;;;106.82;22.95;;;;;;;;;;6177312;23;20032;-44
2023/06/08 04:43:30;;;;;;;52.58;17.10;;;;;;;;;;6176876;23;20060;-44
2023/06/08 04:46:07;;;;;;;106.60;24.50;;;;;;;;;;6172718;23;20079;-43
2023/06/08 04:48:37;;;;;;;62.42;24.13;;;;;;;;;;6172963;23;20021;-49
2023/06/08 04:51:11;;;;;;;105.85;24.27;;;;;;;;;;6175546;23;20389;-50
2023/06/08 04:53:38;;;;;;;64.28;22.33;;;;;;;;;;6176341;23;20564;-49
2023/06/08 04:56:05;;;;;;;78.65;24.88;;;;;;;;;;6177119;23;20035;-46
2023/06/08 04:58:39;;;;;;;50.42;23.30;;;;;;;;;;6175503;23;20021;-45
2023/06/08 05:01:06;;;;;;;39.40;19.75;;;;;;;;;;6175235;23;20067;-56
2023/06/08 05:03:47;;;;;;;36.58;19.92;;;;;;;;;;6174851;23;20663;-57
2023/06/08 05:06:14;;;;;;;34.17;19.45;;;;;;;;;;6173342;23;20485;-57
2023/06/08 05:08:48;;;;;;;38.60;19.95;;;;;;;;;;6170871;23;20424;-57
2023/06/08 05:11:15;;;;;;;34.42;19.70;;;;;;;;;;6175264;23;20698;-57
2023/06/08 05:13:42;;;;;;;36.53;18.92;;;;;;;;;;6175322;23;20025;-57
2023/06/08 05:16:16;;;;;;;34.28;18.98;;;;;;;;;;6177220;23;20021;-58
2023/06/08 05:18:43;;;;;;;36.20;19.58;;;;;;;;;;6176454;23;20025;-57
2023/06/08 05:21:17;;;;;;;26.13;16.95;;;;;;;;;;6177593;23;20071;-57
2023/06/08 05:23:44;;;;;;;30.65;17.45;;;;;;;;;;6177497;23;20087;-56
2023/06/08 05:26:11;;;;;;;29.85;17.83;;;;;;;;;;6176653;23;20025;-49
2023/06/08 05:28:45;;;;;;;33.42;18.67;;;;;;;;;;6178253;23;20087;-59
2023/06/08 05:31:12;;;;;;;25.83;16.90;;;;;;;;;;6177815;23;20427;-59
2023/06/08 05:33:46;;;;;;;29.83;18.13;;;;;;;;;;6175000;23;20489;-59
2023/06/08 05:36:13;;;;;;;;;;;;;;;;;;6173665;23;20025;-59
2023/06/08 05:38:41;;;;;;;24.90;15.68;;;;;;;;;;6176730;23;19920;-58
2023/06/08 05:41:15;;;;;;;19.98;13.73;;;;;;;;;;6174035;23;20496;-59
2023/06/08 05:43:42;;;;;;;22.88;14.80;;;;;;;;;;6174007;23;20033;-59
2023/06/08 05:46:16;;;;;;;24.02;15.65;;;;;;;;;;6177383;23;20025;-46
2023/06/08 05:48:43;;;;;;;21.48;15.35;;;;;;;;;;6172224;23;20100;-44
2023/06/08 05:51:11;;;;;;;21.02;14.73;;;;;;;;;;6176737;23;20108;-44
2023/06/08 05:53:45;;;;;;;24.77;15.07;;;;;;;;;;6177490;23;20029;-43
2023/06/08 05:56:19;;;;;;;26.98;13.13;;;;;;;;;;6176848;23;20075;-45
2023/06/08 05:58:47;;;;;;;20.77;15.68;;;;;;;;;;6177178;23;20508;-57
2023/06/08 06:01:19;;;;;;;20.20;14.35;;;;;;;;;;6174685;23;20071;-57
2023/06/08 06:04:00;;;;;;;21.77;13.95;;;;;;;;;;6115046;23;20030;-58
2023/06/08 06:06:28;;;;;;;21.00;14.48;;;;;;;;;;6144300;23;20074;-56
2023/06/08 06:09:03;;;;;;;19.10;13.65;;;;;;;;;;6147429;23;20096;-56
2023/06/08 06:11:30;;;;;;;19.50;13.45;;;;;;;;;;6147710;23;20029;-57
2023/06/08 06:14:00;;;;;;;21.23;14.32;;;;;;;;;;6144816;23;20029;-43
2023/06/08 06:16:34;;;;;;;19.65;14.65;;;;;;;;;;6146470;23;20033;-45
2023/06/08 06:19:02;;;;;;;17.52;12.57;;;;;;;;;;6146421;23;20053;-45
2023/06/08 06:21:29;;;;;;;21.13;14.60;;;;;;;;;;6146616;23;20072;-45
2023/06/08 06:24:03;;;;;;;23.42;15.80;;;;;;;;;;6146485;23;20084;-51
2023/06/08 06:26:30;;;;;;;20.95;15.32;;;;;;;;;;6146566;23;20024;-46
2023/06/08 06:29:04;;;;;;;21.20;15.88;;;;;;;;;;6146153;23;20088;-45
2023/06/08 06:31:32;;;;;;;20.38;14.98;;;;;;;;;;6147015;23;20552;-48
2023/06/08 06:33:59;;;;;;;19.08;13.77;;;;;;;;;;6146116;23;20022;-43
2023/06/08 06:36:33;;;;;;;21.20;13.55;;;;;;;;;;6145900;23;20025;-45
2023/06/08 06:39:00;;;;;;;20.35;14.52;;;;;;;;;;6147219;23;20084;-48
2023/06/08 06:41:34;;;;;;;18.52;13.73;;;;;;;;;;6147946;23;20080;-43
2023/06/08 06:44:01;;;;;;;17.95;13.05;;;;;;;;;;6145275;23;20032;-43
2023/06/08 06:46:28;;;;;;;20.02;12.18;;;;;;;;;;6146668;23;20057;-44
2023/06/08 06:49:02;;;;;;;22.20;14.20;;;;;;;;;;6145069;23;20088;-50
2023/06/08 06:51:30;;;;;;;20.20;15.35;;;;;;;;;;6120848;23;20025;-43
2023/06/08 06:54:04;;;;;;;23.27;14.60;;;;;;;;;;6145202;23;20037;-48
2023/06/08 06:56:31;;;;;;;23.80;15.27;;;;;;;;;;6141266;23;20026;-47
2023/06/08 06:59:05;;;;;;;29.45;18.38;;;;;;;;;;6145201;23;20056;-46
2023/06/08 07:01:46;;;;;;;26.85;19.15;;;;;;;;;;6147695;23;20034;-46
2023/06/08 07:04:21;;;;;;;23.80;16.27;;;;;;;;;;6173209;23;20389;-46
2023/06/08 07:06:52;;;;;;;24.77;17.83;;;;;;;;;;6175128;23;20100;-46
2023/06/08 07:09:21;;;;;;;30.90;17.30;;;;;;;;;;6176428;23;20385;-47
2023/06/08 07:11:55;;;;;;;25.63;16.55;;;;;;;;;;6175690;23;20548;-45
2023/06/08 07:14:42;;;;;;;23.10;16.05;;;;;;;;;;6173671;23;20381;-49
2023/06/08 07:17:16;;;;;;;27.23;17.00;;;;;;;;;;6174320;23;20369;-48
2023/06/08 07:19:46;;;;;;;22.27;15.60;;;;;;;;;;6173790;23;20033;-50
2023/06/08 07:22:20;;;;;;;26.35;15.27;;;;;;;;;;6173661;23;20438;-48
2023/06/08 07:25:15;;;;;;;28.90;18.38;;;;;;;;;;6174394;23;20028;-51
2023/06/08 07:28:02;;;;;;;27.97;17.70;;;;;;;;;;6174673;23;20020;-47
2023/06/08 07:30:36;;;;;;;28.20;17.25;;;;;;;;;;6177339;23;20248;-45
2023/06/08 07:33:03;;;;;;;25.13;17.45;;;;;;;;;;6175619;23;20025;-45
2023/06/08 07:35:44;;;;;;;26.20;16.17;;;;;;;;;;6177099;23;20024;-47
2023/06/08 07:38:20;;;;;;;26.00;17.77;;;;;;;;;;6176850;23;20091;-53
2023/06/08 07:40:54;;;;;;;29.15;18.45;;;;;;;;;;6175900;23;20024;-47
2023/06/08 07:43:21;;;;;;;28.08;18.60;;;;;;;;;;6176275;23;20025;-54
2023/06/08 07:45:49;;;;;;;25.70;16.83;;;;;;;;;;6177084;23;20029;-48
2023/06/08 07:48:23;;;;;;;32.08;20.15;;;;;;;;;;6177047;23;20046;-60
2023/06/08 07:50:50;;;;;;;28.00;16.67;;;;;;;;;;6177987;23;20088;-50
2023/06/08 07:53:24;;;;;;;28.25;16.10;;;;;;;;;;6176268;23;20506;-45
2023/06/08 07:55:52;;;;;;;24.80;15.18;;;;;;;;;;6177334;23;20025;-49
2023/06/08 07:58:20;;;;;;;28.17;17.25;;;;;;;;;;6178237;23;20436;-51
2023/06/08 08:00:54;;;;;;;23.92;16.63;;;;;;;;;;6180348;23;20099;-52
2023/06/08 08:03:21;;;;;;;28.15;17.15;;;;;;;;;;6179106;23;20024;-45
2023/06/08 08:05:56;;;;;;;26.60;15.75;;;;;;;;;;6178898;23;20029;-44
2023/06/08 08:08:23;;;;;;;25.30;16.63;;;;;;;;;;6179968;23;20504;-50
2023/06/08 08:10:50;;;;;;;24.85;15.93;;;;;;;;;;6179718;23;20025;-55
2023/06/08 08:13:24;;;;;;;30.65;18.63;;;;;;;;;;6178681;23;20083;-49
2023/06/08 08:15:51;;;;;;;29.95;17.58;;;;;;;;;;6180170;23;20084;-52
2023/06/08 08:18:25;;;;;;;28.80;17.92;;;;;;;;;;6176128;23;20032;-43
2023/06/08 08:20:52;;;;;;;29.58;18.50;;;;;;;;;;6179957;23;20481;-49
2023/06/08 08:23:19;;;;;;;29.25;17.25;;;;;;;;;;6179181;23;20053;-50
2023/06/08 08:25:53;;;;;;;28.23;17.95;;;;;;;;;;6179124;23;20029;-52
2023/06/08 08:28:20;;;;;;;31.30;17.35;;;;;;;;;;6178389;23;20370;-50
2023/06/08 08:30:54;;;;;;;37.17;23.55;;;;;;;;;;6178814;23;20432;-51
2023/06/08 08:33:21;;;;;;;;;;;;;;;;;;6180250;23;20088;-48
2023/06/08 08:35:48;;;;;;;34.03;20.38;;;;;;;;;;6179498;23;19916;-60
2023/06/08 08:38:22;;;;;;;36.05;22.50;;;;;;;;;;6179409;23;20080;-61
2023/06/08 08:40:52;;;;;;;38.47;21.17;;;;;;;;;;6179990;23;20079;-61
2023/06/08 08:43:23;;;;;;;31.38;18.35;;;;;;;;;;6179374;23;20079;-60
2023/06/08 08:46:00;;;;;;;30.65;18.27;;;;;;;;;;6177598;23;20025;-61
2023/06/08 08:48:29;;;;;;;29.45;17.45;;;;;;;;;;6178361;23;20091;-44
2023/06/08 08:51:05;;;;;;;27.75;18.00;;;;;;;;;;6178985;23;20025;-61
2023/06/08 08:53:33;;;;;;;29.70;18.95;;;;;;;;;;6178886;23;20029;-61
2023/06/08 08:56:07;;;;;;;28.42;16.77;;;;;;;;;;6178343;23;20083;-61
2023/06/08 08:58:35;;;;;;;30.23;18.55;;;;;;;;;;6180264;23;20028;-62
2023/06/08 09:01:05;;;;;;;27.27;17.05;;;;;;;;;;6177706;23;20428;-62
2023/06/08 09:03:48;;;;;;;24.70;17.13;;;;;;;;;;6179797;23;20277;-54
2023/06/08 09:06:16;;;;;;;28.73;15.68;;;;;;;;;;6179219;23;20481;-50
2023/06/08 09:08:50;;;;;;;30.92;18.77;;;;;;;;;;6177754;23;20025;-52
2023/06/08 09:11:17;;;;;;;32.90;18.48;;;;;;;;;;6177721;23;20021;-53
2023/06/08 09:13:45;;;;;;;27.83;17.92;;;;;;;;;;6177977;23;20040;-55
2023/06/08 09:16:19;;;;;;;25.55;17.10;;;;;;;;;;6176281;23;20544;-57
2023/06/08 09:18:47;;;;;;;27.27;15.98;;;;;;;;;;6178013;23;20436;-52
2023/06/08 09:21:27;;;;;;;27.33;17.90;;;;;;;;;;6177833;23;20025;-53
2023/06/08 09:24:03;;;;;;;23.05;14.00;;;;;;;;;;6176749;23;20049;-54
2023/06/08 09:26:39;;;;;;;28.83;16.42;;;;;;;;;;6177706;23;20594;-54
2023/06/08 09:29:06;;;;;;;20.73;14.70;;;;;;;;;;6174458;23;20056;-56
2023/06/08 09:31:49;;;;;;;24.33;16.77;;;;;;;;;;6176196;23;20025;-54
2023/06/08 09:34:17;;;;;;;25.88;15.07;;;;;;;;;;6173475;23;20048;-62
2023/06/08 09:36:52;;;;;;;22.70;14.18;;;;;;;;;;6176428;23;20075;-63
2023/06/08 09:39:19;;;;;;;22.13;11.90;;;;;;;;;;6176736;23;20024;-63
2023/06/08 09:41:57;;;;;;;22.40;12.13;;;;;;;;;;6178272;23;20031;-64
2023/06/08 09:44:24;;;;;;;21.90;13.45;;;;;;;;;;6177315;23;20028;-57
2023/06/08 09:46:58;;;;;;;18.67;11.45;;;;;;;;;;6175784;23;20084;-58
2023/06/08 09:49:26;;;;;;;23.73;13.25;;;;;;;;;;6178044;23;20056;-56
2023/06/08 09:52:01;;;;;;;22.17;13.35;;;;;;;;;;6177074;23;20477;-57
2023/06/08 09:54:34;;;;;;;18.23;12.02;;;;;;;;;;6176736;23;20032;-57
2023/06/08 09:57:09;;;;;;;19.80;12.40;;;;;;;;;;6177043;23;20076;-57
2023/06/08 09:59:42;;;;;;;25.13;12.88;;;;;;;;;;6177042;23;20029;-54
2023/06/08 10:02:26;;;;;;;18.20;12.13;;;;;;;;;;6176066;23;20087;-55
2023/06/08 10:04:53;;;;;;;;;;;;;;;;;;6176689;23;20056;-53
2023/06/08 10:07:35;;;;;;;19.70;11.98;;;;;;;;;;6176938;23;19916;-53
2023/06/08 10:10:06;;;;;;;18.88;10.95;;;;;;;;;;6175580;23;20037;-55
2023/06/08 10:12:40;;;;;;;14.68;10.20;;;;;;;;;;6177053;23;20021;-49
2023/06/08 10:15:07;;;;;;;;;;;;;;;;;;6177331;23;20029;-50
2023/06/08 10:17:43;;;;;;;16.15;9.90;;;;;;;;;;6176537;23;19916;-51
2023/06/08 10:20:12;;;;;;;19.25;9.88;;;;;;;;;;6175410;23;20075;-50
2023/06/08 10:22:40;;;;;;;17.45;10.23;;;;;;;;;;6176553;23;20045;-51
2023/06/08 10:25:16;;;;;;;21.80;10.02;;;;;;;;;;6176594;23;20029;-47
2023/06/08 10:27:48;;;;;;;18.05;9.90;;;;;;;;;;6176941;23;20554;-50
2023/06/08 10:30:28;;;;;;;13.77;9.65;;;;;;;;;;6177733;23;20091;-64
2023/06/08 10:33:31;;;;;;;18.42;9.45;;;;;;;;;;6173014;23;20385;-63
2023/06/08 10:36:09;;;;;;;13.83;9.20;;;;;;;;;;6083710;23;20022;-64
2023/06/08 10:38:56;;;;;;;13.27;8.77;;;;;;;;;;6164731;23;20280;-62
2023/06/08 10:41:40;;;;;;;14.20;9.07;;;;;;;;;;6177079;23;20025;-47
2023/06/08 10:44:23;;;;;;;18.00;8.53;;;;;;;;;;6176550;23;20083;-47
2023/06/08 10:47:00;;;;;;;11.38;7.22;;;;;;;;;;6176841;23;20032;-45
2023/06/08 10:49:37;;;;;;;11.57;7.30;;;;;;;;;;6176001;23;20079;-47
2023/06/08 10:52:17;;;;;;;15.23;7.47;;;;;;;;;;6175688;23;20083;-51
2023/06/08 10:54:47;;;;;;;13.75;6.82;;;;;;;;;;6177040;23;20064;-46
2023/06/08 10:57:34;;;;;;;15.00;6.93;;;;;;;;;;6175627;23;20088;-50
2023/06/08 11:00:04;;;;;;;16.83;7.60;;;;;;;;;;6176081;23;20025;-65
2023/06/08 11:02:45;;;;;;;12.35;7.70;;;;;;;;;;6175382;23;20028;-64
2023/06/08 11:05:19;;;;;;;11.35;7.20;;;;;;;;;;6175919;23;20026;-65
2023/06/08 11:07:56;;;;;;;13.40;6.47;;;;;;;;;;6177574;23;20021;-49
2023/06/08 11:10:26;;;;;;;12.98;6.20;;;;;;;;;;6175120;23;20492;-58
2023/06/08 11:13:04;;;;;;;11.32;6.20;;;;;;;;;;6176028;23;20477;-58
2023/06/08 11:15:34;;;;;;;10.98;6.18;;;;;;;;;;6175623;23;20083;-58
2023/06/08 11:18:09;;;;;;;11.43;6.78;;;;;;;;;;6177024;23;20387;-58
2023/06/08 11:20:37;;;;;;;11.50;8.40;;;;;;;;;;6175252;23;20025;-58
2023/06/08 11:23:08;;;;;;;13.10;8.52;;;;;;;;;;6176066;23;20108;-58
2023/06/08 11:25:41;;;;;;;12.35;7.55;;;;;;;;;;6176510;23;20025;-57
2023/06/08 11:28:11;;;;;;;15.55;8.55;;;;;;;;;;6176442;23;20489;-58
2023/06/08 11:30:45;;;;;;;15.82;8.07;;;;;;;;;;6175572;23;20028;-58
2023/06/08 11:33:14;;;;;;;;;;;;;;;;;;6178647;23;20021;-59
2023/06/08 11:35:42;;;;;;;12.70;7.70;;;;;;;;;;6176516;23;19920;-58
2023/06/08 11:38:16;;;;;;;11.02;7.00;;;;;;;;;;6176371;23;20444;-62
2023/06/08 11:40:50;;;;;;;16.10;8.35;;;;;;;;;;6176623;23;20025;-45
2023/06/08 11:43:17;;;;;;;13.90;8.38;;;;;;;;;;6172849;23;20025;-48
2023/06/08 11:45:52;;;;;;;12.32;7.97;;;;;;;;;;6176899;23;20543;-47
2023/06/08 11:48:23;;;;;;;12.77;8.63;;;;;;;;;;6175362;23;20072;-50
2023/06/08 11:50:50;;;;;;;17.55;8.57;;;;;;;;;;6176523;23;20021;-49
2023/06/08 11:53:25;;;;;;;15.25;8.90;;;;;;;;;;6175530;23;20092;-46
2023/06/08 11:55:53;;;;;;;10.93;8.65;;;;;;;;;;6176435;23;20093;-59
2023/06/08 11:58:27;;;;;;;13.77;8.68;;;;;;;;;;6175959;23;20813;-58
2023/06/08 12:01:09;;;;;;;16.58;9.35;;;;;;;;;;6175623;23;20021;-57
2023/06/08 12:03:51;;;;;;;17.33;8.93;;;;;;;;;;6175782;23;20571;-58
2023/06/08 12:06:19;;;;;;;14.15;7.93;;;;;;;;;;6175294;23;20111;-46
2023/06/08 12:08:56;;;;;;;13.60;7.88;;;;;;;;;;6172767;23;20377;-58
2023/06/08 12:11:24;;;;;;;11.00;7.60;;;;;;;;;;6173264;23;20064;-58
2023/06/08 12:13:58;;;;;;;16.17;8.30;;;;;;;;;;6175075;23;20033;-58
2023/06/08 12:16:25;;;;;;;15.23;8.57;;;;;;;;;;6172851;23;20018;-59
2023/06/08 12:18:53;;;;;;;11.75;7.93;;;;;;;;;;6173138;23;20025;-58
2023/06/08 12:21:26;;;;;;;12.35;7.70;;;;;;;;;;6175630;23;20025;-57
2023/06/08 12:23:53;;;;;;;;;;;;;;;;;;6177724;23;20087;-58
2023/06/08 12:26:27;;;;;;;14.35;7.50;;;;;;;;;;6176095;23;20275;-58
2023/06/08 12:28:54;;;;;;;12.35;7.45;;;;;;;;;;6175841;23;20025;-59
2023/06/08 12:31:28;;;;;;;13.55;7.57;;;;;;;;;;6174836;23;20489;-58
2023/06/08 12:33:55;;;;;;;;;;;;;;;;;;6176875;23;20028;-58
2023/06/08 12:36:23;;;;;;;13.90;7.20;;;;;;;;;;6150005;23;19920;-45
2023/06/08 12:38:57;;;;;;;12.65;7.82;;;;;;;;;;6175549;23;20096;-46
2023/06/08 12:41:24;;;;;;;10.77;6.95;;;;;;;;;;6175323;23;20511;-51
2023/06/08 12:43:51;;;;;;;13.68;6.60;;;;;;;;;;6178215;23;20125;-49
2023/06/08 12:46:25;;;;;;;14.10;6.50;;;;;;;;;;6177488;23;20080;-48
2023/06/08 12:48:58;;;;;;;10.05;6.57;;;;;;;;;;6176485;23;20031;-50
2023/06/08 12:51:32;;;;;;;13.68;6.80;;;;;;;;;;6177609;23;20025;-58
2023/06/08 12:54:00;;;;;;;11.93;6.45;;;;;;;;;;6177952;23;20022;-59
2023/06/08 12:56:28;;;;;;;12.23;6.60;;;;;;;;;;6177701;23;20619;-55
2023/06/08 12:59:02;;;;;;;13.85;7.60;;;;;;;;;;6177494;23;20021;-58
2023/06/08 13:01:29;;;;;;;13.25;6.57;;;;;;;;;;6177446;23;20091;-50
2023/06/08 13:03:56;;;;;;;;;;;;;;;;;;6177800;23;20563;-58
2023/06/08 13:06:30;;;;;;;9.35;5.72;;;;;;;;;;6177212;23;20378;-47
2023/06/08 13:08:57;;;;;;;;;;;;;;;;;;6176565;23;20085;-47
2023/06/08 13:11:31;;;;;;;11.57;6.57;;;;;;;;;;6177387;23;19916;-48
2023/06/08 13:13:58;;;;;;;19.00;6.78;;;;;;;;;;6177858;23;20484;-46
2023/06/08 13:16:26;;;;;;;;;;;;;;;;;;6178392;23;20025;-45
2023/06/08 13:18:59;;;;;;;12.73;6.25;;;;;;;;;;6178004;23;19920;-46
2023/06/08 13:21:31;;;;;;;12.73;6.22;;;;;;;;;;6177986;23;20200;-58
2023/06/08 13:24:06;;;;;;;10.80;5.72;;;;;;;;;;6177216;23;20449;-59
2023/06/08 13:26:34;;;;;;;10.27;6.05;;;;;;;;;;6176477;23;20028;-59
2023/06/08 13:29:01;;;;;;;8.80;5.93;;;;;;;;;;6175939;23;20025;-58
2023/06/08 13:31:35;;;;;;;8.60;5.30;;;;;;;;;;6175580;23;20028;-55
2023/06/08 13:34:04;;;;;;;10.15;6.22;;;;;;;;;;6176726;23;20109;-51
2023/06/08 13:36:39;;;;;;;9.05;5.65;;;;;;;;;;6176878;23;20091;-50
2023/06/08 13:39:06;;;;;;;13.32;5.78;;;;;;;;;;6175506;23;20091;-49
2023/06/08 13:41:35;;;;;;;12.48;5.55;;;;;;;;;;6177970;23;20025;-50
2023/06/08 13:44:10;;;;;;;10.52;5.45;;;;;;;;;;6176770;23;20097;-49
2023/06/08 13:46:37;;;;;;;9.38;5.07;;;;;;;;;;6177502;23;20084;-46
2023/06/08 13:49:05;;;;;;;8.38;5.35;;;;;;;;;;6177057;23;20021;-51
2023/06/08 13:51:41;;;;;;;9.73;5.40;;;;;;;;;;6176119;23;20433;-50
2023/06/08 13:54:08;;;;;;;8.48;5.57;;;;;;;;;;6175618;23;20021;-51
2023/06/08 13:56:46;;;;;;;8.82;5.00;;;;;;;;;;6172993;23;20440;-49
2023/06/08 13:59:15;;;;;;;9.30;4.82;;;;;;;;;;6172898;23;20076;-50
2023/06/08 14:01:50;;;;;;;8.77;5.47;;;;;;;;;;6177624;23;20029;-52
2023/06/08 14:04:24;;;;;;;8.05;5.85;;;;;;;;;;6171749;23;20028;-54
2023/06/08 14:06:58;;;;;;;7.80;5.10;;;;;;;;;;6175821;23;20080;-52
2023/06/08 14:09:25;;;;;;;7.85;5.50;;;;;;;;;;6178794;23;20428;-52
2023/06/08 14:11:53;;;;;;;11.20;5.75;;;;;;;;;;6176396;23;20024;-52
2023/06/08 14:14:26;;;;;;;9.40;4.90;;;;;;;;;;6178124;23;20025;-50
2023/06/08 14:16:53;;;;;;;12.05;5.45;;;;;;;;;;6176156;23;20076;-50
2023/06/08 14:19:27;;;;;;;11.60;5.43;;;;;;;;;;6175712;23;20024;-47
2023/06/08 14:21:55;;;;;;;;;;;;;;;;;;6176019;23;20071;-45
2023/06/08 14:24:22;;;;;;;8.43;5.93;;;;;;;;;;6176498;23;20360;-45
2023/06/08 14:26:56;;;;;;;7.88;5.35;;;;;;;;;;6175516;23;20033;-50
2023/06/08 14:29:23;;;;;;;;;;;;;;;;;;6173479;23;20021;-49
2023/06/08 14:31:53;;;;;;;9.90;5.72;;;;;;;;;;6175903;23;19971;-57
2023/06/08 14:34:27;;;;;;;9.48;6.18;;;;;;;;;;6176715;23;20124;-56
2023/06/08 14:36:55;;;;;;;8.93;6.03;;;;;;;;;;6175991;23;20028;-56
2023/06/08 14:39:22;;;;;;;8.02;5.55;;;;;;;;;;6176385;23;20081;-57
2023/06/08 14:41:56;;;;;;;7.78;5.47;;;;;;;;;;6174713;23;20040;-55
2023/06/08 14:44:23;;;;;;;8.45;5.68;;;;;;;;;;6175910;23;20032;-56
2023/06/08 14:46:57;;;;;;;8.02;5.90;;;;;;;;;;6176528;23;20029;-64
2023/06/08 14:49:26;;;;;;;9.38;5.93;;;;;;;;;;6176801;23;20017;-64
2023/06/08 14:51:54;;;;;;;7.80;5.30;;;;;;;;;;6175916;23;20105;-64
2023/06/08 14:54:29;;;;;;;11.90;5.38;;;;;;;;;;6174971;23;20021;-64
2023/06/08 14:56:56;;;;;;;12.60;5.82;;;;;;;;;;6175370;23;20024;-53
2023/06/08 14:59:23;;;;;;;10.50;5.43;;;;;;;;;;6176433;23;20103;-49